East Burke, VT (05832)

8:17 PM EST on November 23, 2014 (GMT -0500)
East Burke, VT | Change Station
CLOSE
Current Station
Personal Weather Station
Location: East BUrke, VT
Elevation: 1332 ft
Nearby Weather Stations

Elev 1332 ft 44.57 °N, 71.93 °W | Updated 9 seconds ago

Fog
Fog
40.5 °F
Feels Like 40 °F
N
0.0
Wind Variable Wind from ESE
Gusts 1.6 mph

Today
High -- | Low -- °F
--% Chance of Precip.
Yesterday
High -- | Low -- °F
Precip. -- in
6:54 AM 4:13 PM
Waxing Crescent, 3% visible
Pressure 30.08 in
Visibility 0.2 miles
Clouds Overcast 4900 ft
Windchill 40 °F
Dew Point 39 °F
Humidity 93%
Rainfall 0.02 in
Snow Depth Not available.
UV 0 out of 12
Pollen .10 out of 12
Air Quality Not available.
Flu Activity Not available.
METAR KCDA 240055Z AUTO 00000KT 1/4SM FG OVC049 03/01 A3008 RMK AO2 T00250014

More Conditions Fewer Conditions

Pressure 30.08 in
Visibility 0.2 miles
Clouds Overcast 4900 ft
Windchill 40 °F
Dew Point 39 °F
Humidity 93%
Rainfall 0.02 in
Snow Depth Not available.
UV 0 out of 12
Pollen .10 out of 12
Air Quality Not available.
Flu Activity Not available.
METAR KCDA 240055Z AUTO 00000KT 1/4SM FG OVC049 03/01 A3008 RMK AO2 T00250014

More Conditions Fewer Conditions

10-Day Weather Forecast

Almanac

Astronomy

Nov. 23, 2014 Rise Set
Actual Time
Civil Twilight
Nautical Twilight
Astronomical Twilight
Moon
Length of Visible Light
Length of Day
Tomorrow will be .
, % of the Moon is Illuminated

Today's Extremes

State Highs State Lows

Community

WunderPhotos

Upload Photos

1,773,234 photos uploaded!

WunderBlogs® & News

Nearby

Air Quality

  Air Quality AQ Index Pollutant
Not available.

Snow Depth

Station Depth Elevation

Earthquake Activity

City Distance Mag. Time & Date
Minimum magnitude displayed is 2.5.

Coastal Water Temperatures

Place Temperature

Nearby Weather Stations